createdAt,value
2023-04-07T00:00:39.029Z,992.76
2023-04-07T00:01:38.989Z,992.74
2023-04-07T00:02:39.026Z,992.72
2023-04-07T00:03:39.198Z,992.75
2023-04-07T00:04:38.987Z,992.72
2023-04-07T00:05:38.934Z,992.76
2023-04-07T00:06:38.916Z,992.77
2023-04-07T00:07:48.780Z,992.72
2023-04-07T00:08:40.944Z,992.72
2023-04-07T00:09:38.907Z,992.71
2023-04-07T00:10:38.901Z,992.65
2023-04-07T00:11:38.907Z,992.65
2023-04-07T00:12:38.921Z,992.64
2023-04-07T00:13:39.161Z,992.62
2023-04-07T00:14:38.879Z,992.65
2023-04-07T00:15:38.874Z,992.62
2023-04-07T00:16:38.884Z,992.63
2023-04-07T00:17:38.893Z,992.63
2023-04-07T00:18:38.866Z,992.60
2023-04-07T00:19:38.821Z,992.59
2023-04-07T00:20:38.834Z,992.57
2023-04-07T00:21:39.817Z,992.61
2023-04-07T00:22:38.842Z,992.57
2023-04-07T00:23:38.826Z,992.54
2023-04-07T00:24:39.744Z,992.59
2023-04-07T00:25:38.799Z,992.56
2023-04-07T00:26:38.812Z,992.54
2023-04-07T00:27:38.785Z,992.51
2023-04-07T00:28:38.808Z,992.51
2023-04-07T00:29:38.801Z,992.48
2023-04-07T00:30:38.803Z,992.46
2023-04-07T00:31:38.833Z,992.53
2023-04-07T00:32:38.788Z,992.49
2023-04-07T00:33:38.751Z,992.49
2023-04-07T00:34:38.744Z,992.52
2023-04-07T00:35:38.732Z,992.50
2023-04-07T00:36:39.719Z,992.51
2023-04-07T00:37:38.738Z,992.47
2023-04-07T00:38:38.704Z,992.53
2023-04-07T00:39:38.706Z,992.49
2023-04-07T00:40:38.690Z,992.45
2023-04-07T00:41:38.684Z,992.43
2023-04-07T00:42:38.694Z,992.39
2023-04-07T00:43:38.680Z,992.40
2023-04-07T00:44:38.691Z,992.41
2023-04-07T00:45:38.644Z,992.41
2023-04-07T00:46:38.658Z,992.35
2023-04-07T00:47:38.684Z,992.39
2023-04-07T00:48:38.664Z,992.37
2023-04-07T00:49:38.679Z,992.37
2023-04-07T00:50:38.646Z,992.35
2023-04-07T00:51:38.649Z,992.42
2023-04-07T00:52:38.610Z,992.44
2023-04-07T00:53:38.596Z,992.36
2023-04-07T00:54:38.629Z,992.35
2023-04-07T00:55:38.607Z,992.30
2023-04-07T00:56:38.586Z,992.38
2023-04-07T00:57:38.574Z,992.35
2023-04-07T00:58:38.586Z,992.32
2023-04-07T00:59:38.614Z,992.32
2023-04-07T01:00:38.554Z,992.30
2023-04-07T01:01:38.600Z,992.32
2023-04-07T01:02:38.658Z,992.27
2023-04-07T01:03:38.701Z,992.23
2023-04-07T01:04:38.594Z,992.20
2023-04-07T01:05:38.521Z,992.21
2023-04-07T01:06:38.504Z,992.23
2023-04-07T01:07:38.501Z,992.18
2023-04-07T01:08:38.510Z,992.17
2023-04-07T01:09:38.531Z,992.18
2023-04-07T01:10:38.478Z,992.19
2023-04-07T01:11:38.493Z,992.15
2023-04-07T01:12:38.464Z,992.15
2023-04-07T01:13:38.443Z,992.19
2023-04-07T01:14:39.480Z,992.18
2023-04-07T01:15:38.433Z,992.16
2023-04-07T01:16:38.509Z,992.16
2023-04-07T01:17:38.440Z,992.16
2023-04-07T01:18:38.430Z,992.14
2023-04-07T01:19:38.524Z,992.13
2023-04-07T01:20:38.399Z,992.11
2023-04-07T01:21:38.400Z,992.13
2023-04-07T01:22:38.441Z,992.10
2023-04-07T01:23:38.380Z,992.10
2023-04-07T01:24:38.412Z,992.17
2023-04-07T01:25:38.364Z,992.08
2023-04-07T01:26:38.348Z,992.08
2023-04-07T01:27:38.390Z,992.05
2023-04-07T01:28:38.372Z,992.12
2023-04-07T01:29:39.360Z,992.15
2023-04-07T01:30:38.334Z,992.12
2023-04-07T01:31:38.366Z,992.10
2023-04-07T01:32:38.359Z,992.08
2023-04-07T01:33:38.317Z,992.04
2023-04-07T01:34:38.334Z,992.10
2023-04-07T01:35:38.289Z,992.05
2023-04-07T01:36:38.375Z,992.08
2023-04-07T01:37:38.278Z,992.05
2023-04-07T01:38:38.303Z,992.04
2023-04-07T01:39:38.286Z,992.07
2023-04-07T01:40:38.269Z,992.02
2023-04-07T01:41:38.246Z,992.03
2023-04-07T01:42:39.197Z,991.97
2023-04-07T01:43:38.237Z,992.02
2023-04-07T01:44:39.261Z,991.98
2023-04-07T01:45:38.243Z,992.04
2023-04-07T01:46:38.295Z,991.99
2023-04-07T01:47:38.258Z,992.00
2023-04-07T01:48:38.265Z,991.98
2023-04-07T01:49:38.222Z,992.03
2023-04-07T01:50:38.192Z,991.98
2023-04-07T01:51:38.187Z,992.00
2023-04-07T01:52:38.176Z,992.00
2023-04-07T01:53:38.189Z,991.99
2023-04-07T01:54:38.184Z,992.04
2023-04-07T01:55:38.169Z,991.96
2023-04-07T01:56:38.145Z,991.98
2023-04-07T01:57:38.160Z,991.98
2023-04-07T01:58:38.128Z,992.02
2023-04-07T01:59:38.143Z,991.94
2023-04-07T02:00:38.130Z,991.91
2023-04-07T02:01:38.337Z,991.94
2023-04-07T02:02:38.202Z,991.94
2023-04-07T02:03:38.215Z,991.86
2023-04-07T02:04:38.109Z,991.94
2023-04-07T02:05:38.072Z,991.87
2023-04-07T02:06:38.079Z,991.90
2023-04-07T02:07:38.115Z,991.91
2023-04-07T02:08:38.081Z,991.93
2023-04-07T02:09:38.081Z,991.94
2023-04-07T02:10:38.061Z,991.87
2023-04-07T02:11:38.046Z,991.89
2023-04-07T02:12:38.073Z,991.84
2023-04-07T02:13:38.037Z,991.84
2023-04-07T02:14:38.076Z,991.88
2023-04-07T02:15:38.049Z,991.89
2023-04-07T02:16:38.028Z,991.81
2023-04-07T02:17:38.045Z,991.84
2023-04-07T02:18:38.020Z,991.82
2023-04-07T02:19:37.992Z,991.84
2023-04-07T02:20:38.010Z,991.81
2023-04-07T02:21:37.969Z,991.80
2023-04-07T02:22:38.025Z,991.79
2023-04-07T02:23:37.957Z,991.78
2023-04-07T02:24:37.938Z,991.77
2023-04-07T02:25:37.957Z,991.80
2023-04-07T02:26:37.943Z,991.80
2023-04-07T02:27:37.927Z,991.70
2023-04-07T02:28:37.941Z,991.77
2023-04-07T02:29:37.931Z,991.75
2023-04-07T02:30:37.969Z,991.73
2023-04-07T02:31:37.931Z,991.72
2023-04-07T02:32:37.971Z,991.73
2023-04-07T02:33:37.888Z,991.68
2023-04-07T02:34:37.904Z,991.70
2023-04-07T02:35:37.899Z,991.76
2023-04-07T02:36:37.893Z,991.74
2023-04-07T02:37:37.862Z,991.77
2023-04-07T02:38:37.861Z,991.79
2023-04-07T02:39:37.833Z,991.78
2023-04-07T02:40:37.906Z,991.80
2023-04-07T02:41:37.819Z,991.82
2023-04-07T02:42:37.836Z,991.79
2023-04-07T02:43:37.831Z,991.79
2023-04-07T02:44:37.799Z,991.81
2023-04-07T02:45:37.853Z,991.81
2023-04-07T02:46:37.912Z,991.79
2023-04-07T02:47:37.831Z,991.76
2023-04-07T02:48:37.788Z,991.81
2023-04-07T02:49:37.804Z,991.75
2023-04-07T02:50:37.781Z,991.81
2023-04-07T02:51:37.764Z,991.78
2023-04-07T02:52:37.773Z,991.75
2023-04-07T02:53:37.783Z,991.85
2023-04-07T02:54:37.739Z,991.82
2023-04-07T02:55:37.749Z,991.77
2023-04-07T02:56:37.716Z,991.77
2023-04-07T02:57:37.712Z,991.77
2023-04-07T02:58:37.691Z,991.78
2023-04-07T02:59:37.738Z,991.74
2023-04-07T03:00:37.704Z,991.74
2023-04-07T03:01:37.737Z,991.72
2023-04-07T03:02:37.792Z,991.75
2023-04-07T03:03:37.762Z,991.75
2023-04-07T03:04:37.650Z,991.79
2023-04-07T03:05:37.654Z,991.75
2023-04-07T03:06:37.651Z,991.78
2023-04-07T03:07:37.636Z,991.78
2023-04-07T03:08:37.640Z,991.80
2023-04-07T03:09:37.650Z,991.81
2023-04-07T03:10:37.646Z,991.79
2023-04-07T03:11:37.624Z,991.79
2023-04-07T03:12:37.614Z,991.77
2023-04-07T03:13:37.593Z,991.75
2023-04-07T03:14:37.614Z,991.79
2023-04-07T03:15:37.583Z,991.78
2023-04-07T03:16:37.610Z,991.77
2023-04-07T03:17:37.596Z,991.76
2023-04-07T03:18:37.574Z,991.74
2023-04-07T03:19:37.579Z,991.77
2023-04-07T03:20:37.561Z,991.72
2023-04-07T03:21:37.576Z,991.68
2023-04-07T03:22:37.546Z,991.69
2023-04-07T03:23:37.524Z,991.72
2023-04-07T03:24:37.523Z,991.70
2023-04-07T03:25:37.554Z,991.70
2023-04-07T03:26:37.541Z,991.70
2023-04-07T03:27:37.488Z,991.66
2023-04-07T03:28:37.502Z,991.62
2023-04-07T03:29:37.484Z,991.71
2023-04-07T03:30:37.602Z,991.69
2023-04-07T03:31:37.468Z,991.66
2023-04-07T03:32:37.473Z,991.70
2023-04-07T03:33:37.451Z,991.65
2023-04-07T03:34:37.454Z,991.63
2023-04-07T03:35:37.512Z,991.70
2023-04-07T03:36:37.434Z,991.68
2023-04-07T03:37:37.422Z,991.65
2023-04-07T03:38:37.425Z,991.66
2023-04-07T03:39:37.448Z,991.60
2023-04-07T03:40:37.412Z,991.62
2023-04-07T03:41:37.399Z,991.60
2023-04-07T03:42:37.384Z,991.53
2023-04-07T03:43:37.371Z,991.61
2023-04-07T03:44:37.388Z,991.61
2023-04-07T03:45:37.387Z,991.53
2023-04-07T03:46:37.357Z,991.59
2023-04-07T03:47:37.524Z,991.66
2023-04-07T03:48:37.409Z,991.64
2023-04-07T03:49:37.335Z,991.55
2023-04-07T03:50:37.345Z,991.61
2023-04-07T03:51:37.337Z,991.55
2023-04-07T03:52:37.301Z,991.59
2023-04-07T03:53:37.302Z,991.56
2023-04-07T03:54:37.308Z,991.54
2023-04-07T03:55:37.306Z,991.57
2023-04-07T03:56:37.284Z,991.55
2023-04-07T03:57:37.374Z,991.55
2023-04-07T03:58:37.263Z,991.57
2023-04-07T03:59:37.257Z,991.51
2023-04-07T04:00:37.281Z,991.53
2023-04-07T04:01:37.282Z,991.49
2023-04-07T04:02:37.308Z,991.54
2023-04-07T04:03:37.439Z,991.51
2023-04-07T04:04:37.265Z,991.50
2023-04-07T04:05:37.275Z,991.51
2023-04-07T04:06:37.242Z,991.56
2023-04-07T04:07:37.233Z,991.61
2023-04-07T04:08:37.209Z,991.61
2023-04-07T04:09:37.355Z,991.67
2023-04-07T04:10:37.215Z,991.60
2023-04-07T04:11:37.245Z,991.69
2023-04-07T04:12:37.180Z,991.73
2023-04-07T04:13:37.285Z,991.71
2023-04-07T04:14:37.226Z,991.64
2023-04-07T04:15:37.224Z,991.65
2023-04-07T04:16:37.312Z,991.63
2023-04-07T04:17:37.348Z,991.67
2023-04-07T04:18:37.116Z,991.63
2023-04-07T04:19:37.148Z,991.64
2023-04-07T04:20:37.142Z,991.65
2023-04-07T04:21:37.110Z,991.66
2023-04-07T04:22:37.103Z,991.66
2023-04-07T04:23:37.161Z,991.67
2023-04-07T04:24:37.086Z,991.65
2023-04-07T04:25:37.081Z,991.67
2023-04-07T04:26:37.110Z,991.64
2023-04-07T04:27:37.060Z,991.66
2023-04-07T04:28:38.868Z,991.61
2023-04-07T04:29:37.072Z,991.67
2023-04-07T04:30:37.058Z,991.59
2023-04-07T04:31:37.075Z,991.58
2023-04-07T04:32:37.063Z,991.60
2023-04-07T04:33:37.022Z,991.61
2023-04-07T04:34:37.005Z,991.59
2023-04-07T04:35:37.029Z,991.63
2023-04-07T04:36:38.510Z,991.62
2023-04-07T04:37:38.014Z,991.63
2023-04-07T04:38:36.993Z,991.70
2023-04-07T04:39:36.978Z,991.68
2023-04-07T04:40:37.008Z,991.68
2023-04-07T04:41:36.978Z,991.72
2023-04-07T04:42:36.953Z,991.73
2023-04-07T04:43:36.938Z,991.70
2023-04-07T04:44:36.954Z,991.73
2023-04-07T04:45:36.942Z,991.69
2023-04-07T04:46:36.975Z,991.70
2023-04-07T04:47:36.974Z,991.72
2023-04-07T04:48:36.925Z,991.70
2023-04-07T04:49:36.913Z,991.66
2023-04-07T04:50:36.924Z,991.75
2023-04-07T04:51:36.900Z,991.73
2023-04-07T04:52:36.881Z,991.72
2023-04-07T04:53:36.870Z,991.73
2023-04-07T04:54:36.863Z,991.72
2023-04-07T04:55:36.884Z,991.69
2023-04-07T04:56:36.878Z,991.75
2023-04-07T04:57:36.848Z,991.70
2023-04-07T04:58:36.856Z,991.73
2023-04-07T04:59:36.824Z,991.72
2023-04-07T05:00:36.895Z,991.68
2023-04-07T05:01:36.887Z,991.71
2023-04-07T05:02:36.988Z,991.79
2023-04-07T05:03:36.917Z,991.77
2023-04-07T05:04:36.912Z,991.69
2023-04-07T05:05:36.792Z,991.78
2023-04-07T05:06:36.791Z,991.71
2023-04-07T05:07:36.780Z,991.71
2023-04-07T05:08:36.765Z,991.74
2023-04-07T05:09:36.757Z,991.76
2023-04-07T05:10:36.779Z,991.71
2023-04-07T05:11:36.793Z,991.78
2023-04-07T05:12:36.751Z,991.73
2023-04-07T05:13:37.332Z,991.77
2023-04-07T05:14:36.725Z,991.76
2023-04-07T05:15:37.758Z,991.73
2023-04-07T05:16:36.900Z,991.69
2023-04-07T05:17:36.760Z,991.69
2023-04-07T05:18:39.770Z,991.72
2023-04-07T05:19:37.850Z,991.76
2023-04-07T05:20:36.710Z,991.71
2023-04-07T05:21:36.681Z,991.76
2023-04-07T05:22:36.671Z,991.81
2023-04-07T05:23:36.682Z,991.80
2023-04-07T05:24:36.654Z,991.79
2023-04-07T05:25:36.674Z,991.78
2023-04-07T05:26:39.396Z,991.77
2023-04-07T05:27:36.633Z,991.75
2023-04-07T05:28:36.651Z,991.77
2023-04-07T05:29:38.821Z,991.80
2023-04-07T05:30:36.636Z,991.79
2023-04-07T05:31:36.598Z,991.77
2023-04-07T05:32:36.710Z,991.78
2023-04-07T05:33:36.596Z,991.81
2023-04-07T05:34:36.570Z,991.79
2023-04-07T05:35:37.669Z,991.80
2023-04-07T05:36:37.686Z,991.80
2023-04-07T05:37:36.575Z,991.84
2023-04-07T05:38:36.559Z,991.79
2023-04-07T05:39:36.557Z,991.78
2023-04-07T05:40:37.614Z,991.86
2023-04-07T05:41:36.700Z,991.75
2023-04-07T05:42:36.544Z,991.80
2023-04-07T05:43:36.511Z,991.84
2023-04-07T05:44:36.528Z,991.84
2023-04-07T05:45:36.640Z,991.83
2023-04-07T05:46:36.517Z,991.89
2023-04-07T05:47:36.573Z,991.84
2023-04-07T05:48:36.478Z,991.81
2023-04-07T05:49:36.477Z,991.76
2023-04-07T05:50:36.479Z,991.81
2023-04-07T05:51:36.496Z,991.84
2023-04-07T05:52:36.485Z,991.84
2023-04-07T05:53:36.495Z,991.85
2023-04-07T05:54:36.467Z,991.81
2023-04-07T05:55:36.454Z,991.78
2023-04-07T05:56:36.477Z,991.80
2023-04-07T05:57:36.471Z,991.83
2023-04-07T05:58:36.400Z,991.83
2023-04-07T05:59:36.410Z,991.82
2023-04-07T06:00:36.454Z,991.82
2023-04-07T06:01:36.433Z,991.85
2023-04-07T06:02:36.501Z,991.87
2023-04-07T06:03:36.639Z,991.87
2023-04-07T06:04:36.383Z,991.92
2023-04-07T06:05:36.432Z,991.92
2023-04-07T06:06:36.382Z,991.89
2023-04-07T06:07:36.349Z,991.91
2023-04-07T06:08:36.339Z,991.88
2023-04-07T06:09:36.335Z,991.95
2023-04-07T06:10:36.335Z,991.94
2023-04-07T06:11:36.337Z,991.99
2023-04-07T06:12:36.313Z,991.97
2023-04-07T06:13:36.336Z,992.01
2023-04-07T06:14:36.379Z,991.98
2023-04-07T06:15:36.296Z,992.03
2023-04-07T06:16:36.499Z,991.99
2023-04-07T06:17:37.283Z,991.96
2023-04-07T06:18:36.300Z,992.01
2023-04-07T06:19:36.267Z,992.03
2023-04-07T06:20:36.284Z,991.99
2023-04-07T06:21:36.260Z,992.00
2023-04-07T06:22:36.269Z,992.01
2023-04-07T06:23:36.383Z,992.02
2023-04-07T06:24:36.230Z,992.01
2023-04-07T06:25:36.227Z,992.01
2023-04-07T06:26:36.291Z,991.96
2023-04-07T06:27:36.229Z,992.01
2023-04-07T06:28:36.200Z,992.01
2023-04-07T06:29:36.193Z,992.00
2023-04-07T06:30:36.214Z,991.95
2023-04-07T06:31:36.199Z,991.99
2023-04-07T06:32:36.231Z,991.97
2023-04-07T06:33:36.236Z,992.02
2023-04-07T06:34:36.165Z,991.98
2023-04-07T06:35:36.173Z,991.95
2023-04-07T06:36:36.194Z,991.97
2023-04-07T06:37:36.192Z,992.00
2023-04-07T06:38:36.133Z,992.03
2023-04-07T06:39:36.121Z,991.94
2023-04-07T06:40:36.111Z,991.95
2023-04-07T06:41:36.142Z,991.99
2023-04-07T06:42:36.094Z,991.96
2023-04-07T06:43:36.157Z,991.89
2023-04-07T06:44:36.105Z,991.90
2023-04-07T06:45:37.123Z,991.95
2023-04-07T06:46:36.197Z,991.93
2023-04-07T06:47:36.145Z,991.95
2023-04-07T06:48:36.057Z,991.97
2023-04-07T06:49:37.246Z,991.95
2023-04-07T06:50:37.078Z,992.00
2023-04-07T06:51:36.041Z,992.00
2023-04-07T06:52:36.065Z,992.03
2023-04-07T06:53:36.049Z,992.02
2023-04-07T06:54:36.025Z,992.02
2023-04-07T06:55:36.004Z,992.04
2023-04-07T06:56:36.134Z,992.03
2023-04-07T06:57:35.986Z,992.11
2023-04-07T06:58:36.002Z,992.11
2023-04-07T06:59:36.018Z,992.04
2023-04-07T07:00:35.978Z,992.05
2023-04-07T07:01:36.094Z,992.09
2023-04-07T07:02:36.108Z,992.11
2023-04-07T07:03:36.081Z,992.11
2023-04-07T07:04:35.942Z,992.08
2023-04-07T07:05:35.950Z,992.08
2023-04-07T07:06:35.939Z,992.11
2023-04-07T07:07:35.925Z,992.11
2023-04-07T07:08:35.930Z,992.06
2023-04-07T07:09:35.924Z,992.13
2023-04-07T07:10:35.958Z,992.14
2023-04-07T07:11:35.934Z,992.13
2023-04-07T07:12:35.889Z,992.16
2023-04-07T07:13:35.875Z,992.21
2023-04-07T07:14:35.879Z,992.15
2023-04-07T07:15:35.926Z,992.16
2023-04-07T07:16:35.890Z,992.18
2023-04-07T07:17:35.942Z,992.16
2023-04-07T07:18:35.844Z,992.18
2023-04-07T07:19:35.829Z,992.18
2023-04-07T07:20:35.876Z,992.15
2023-04-07T07:21:35.969Z,992.24
2023-04-07T07:22:35.857Z,992.22
2023-04-07T07:23:35.846Z,992.22
2023-04-07T07:24:35.804Z,992.32
2023-04-07T07:25:35.790Z,992.24
2023-04-07T07:26:35.956Z,992.28
2023-04-07T07:27:35.835Z,992.30
2023-04-07T07:28:35.768Z,992.27
2023-04-07T07:29:35.773Z,992.34
2023-04-07T07:30:35.802Z,992.32
2023-04-07T07:31:35.892Z,992.36
2023-04-07T07:32:35.954Z,992.35
2023-04-07T07:33:35.746Z,992.42
2023-04-07T07:34:35.747Z,992.38
2023-04-07T07:35:35.730Z,992.36
2023-04-07T07:36:35.736Z,992.41
2023-04-07T07:37:35.766Z,992.38
2023-04-07T07:38:37.014Z,992.39
2023-04-07T07:39:36.699Z,992.40
2023-04-07T07:40:35.695Z,992.39
2023-04-07T07:41:35.706Z,992.41
2023-04-07T07:42:35.664Z,992.44
2023-04-07T07:43:36.698Z,992.43
2023-04-07T07:44:35.656Z,992.47
2023-04-07T07:45:35.678Z,992.43
2023-04-07T07:46:35.673Z,992.45
2023-04-07T07:47:35.659Z,992.46
2023-04-07T07:48:35.661Z,992.51
2023-04-07T07:49:35.632Z,992.51
2023-04-07T07:50:35.620Z,992.49
2023-04-07T07:51:35.647Z,992.53
2023-04-07T07:52:35.614Z,992.55
2023-04-07T07:53:35.622Z,992.58
2023-04-07T07:54:35.625Z,992.60
2023-04-07T07:55:35.593Z,992.55
2023-04-07T07:56:35.595Z,992.54
2023-04-07T07:57:35.585Z,992.57
2023-04-07T07:58:35.567Z,992.57
2023-04-07T07:59:35.556Z,992.57
2023-04-07T08:00:35.569Z,992.59
2023-04-07T08:01:35.584Z,992.53
2023-04-07T08:02:35.572Z,992.54
2023-04-07T08:03:35.671Z,992.56
2023-04-07T08:04:35.560Z,992.57
2023-04-07T08:05:35.520Z,992.65
2023-04-07T08:06:35.540Z,992.59
2023-04-07T08:07:35.496Z,992.63
2023-04-07T08:08:35.541Z,992.63
2023-04-07T08:09:35.494Z,992.67
2023-04-07T08:10:35.481Z,992.67
2023-04-07T08:11:35.486Z,992.69
2023-04-07T08:12:35.515Z,992.69
2023-04-07T08:13:35.457Z,992.73
2023-04-07T08:14:35.454Z,992.71
2023-04-07T08:15:35.466Z,992.68
2023-04-07T08:16:35.557Z,992.67
2023-04-07T08:17:35.434Z,992.74
2023-04-07T08:18:35.438Z,992.67
2023-04-07T08:19:35.412Z,992.69
2023-04-07T08:20:35.401Z,992.72
2023-04-07T08:21:35.414Z,992.73
2023-04-07T08:22:35.387Z,992.70
2023-04-07T08:23:35.377Z,992.67
2023-04-07T08:24:35.367Z,992.74
2023-04-07T08:25:35.371Z,992.72
2023-04-07T08:26:35.380Z,992.74
2023-04-07T08:27:35.354Z,992.75
2023-04-07T08:28:35.378Z,992.79
2023-04-07T08:29:35.334Z,992.82
2023-04-07T08:30:35.346Z,992.82
2023-04-07T08:31:35.350Z,992.83
2023-04-07T08:32:35.367Z,992.85
2023-04-07T08:33:35.322Z,992.87
2023-04-07T08:34:35.304Z,992.88
2023-04-07T08:35:35.314Z,992.79
2023-04-07T08:36:35.311Z,992.86
2023-04-07T08:37:35.278Z,992.92
2023-04-07T08:38:35.312Z,992.88
2023-04-07T08:39:35.266Z,992.91
2023-04-07T08:40:35.273Z,992.89
2023-04-07T08:41:35.258Z,992.85
2023-04-07T08:42:35.279Z,992.92
2023-04-07T08:43:35.239Z,992.90
2023-04-07T08:44:35.454Z,992.92
2023-04-07T08:45:35.283Z,992.99
2023-04-07T08:46:35.260Z,992.89
2023-04-07T08:47:35.284Z,992.88
2023-04-07T08:48:35.200Z,992.92
2023-04-07T08:49:35.199Z,992.89
2023-04-07T08:50:35.199Z,992.89
2023-04-07T08:51:35.304Z,992.94
2023-04-07T08:52:35.266Z,992.92
2023-04-07T08:53:35.290Z,992.95
2023-04-07T08:54:35.173Z,992.95
2023-04-07T08:55:35.158Z,992.93
2023-04-07T08:56:35.157Z,992.92
2023-04-07T08:57:35.153Z,992.91
2023-04-07T08:58:35.137Z,992.94
2023-04-07T08:59:35.118Z,992.94
2023-04-07T09:00:35.118Z,992.95
2023-04-07T09:01:35.204Z,992.95
2023-04-07T09:02:35.248Z,992.92
2023-04-07T09:03:35.128Z,992.85
2023-04-07T09:04:35.086Z,992.95
2023-04-07T09:05:35.066Z,992.99
2023-04-07T09:06:35.071Z,992.98
2023-04-07T09:07:35.116Z,992.96
2023-04-07T09:08:35.042Z,992.99
2023-04-07T09:09:35.036Z,993.01
2023-04-07T09:10:35.025Z,993.00
2023-04-07T09:11:35.023Z,992.99
2023-04-07T09:12:35.016Z,993.02
2023-04-07T09:13:35.010Z,993.01
2023-04-07T09:14:34.999Z,993.00
2023-04-07T09:15:36.212Z,993.14
2023-04-07T09:16:35.060Z,993.02
2023-04-07T09:17:35.026Z,993.07
2023-04-07T09:18:34.981Z,993.03
2023-04-07T09:19:34.957Z,993.08
2023-04-07T09:20:34.947Z,993.07
2023-04-07T09:21:34.949Z,993.13
2023-04-07T09:22:34.975Z,993.14
2023-04-07T09:23:34.965Z,993.14
2023-04-07T09:24:34.940Z,993.16
2023-04-07T09:25:34.929Z,993.13
2023-04-07T09:26:34.906Z,993.20
2023-04-07T09:27:34.900Z,993.10
2023-04-07T09:28:34.916Z,993.11
2023-04-07T09:29:34.886Z,993.14
2023-04-07T09:30:34.984Z,993.17
2023-04-07T09:31:34.912Z,993.15
2023-04-07T09:32:34.922Z,993.19
2023-04-07T09:33:34.868Z,993.22
2023-04-07T09:34:34.845Z,993.15
2023-04-07T09:35:34.886Z,993.13
2023-04-07T09:36:34.843Z,993.17
2023-04-07T09:37:34.848Z,993.17
2023-04-07T09:38:34.834Z,993.21
2023-04-07T09:39:34.874Z,993.17
2023-04-07T09:40:34.821Z,993.16
2023-04-07T09:41:34.841Z,993.19
2023-04-07T09:42:34.865Z,993.19
2023-04-07T09:43:34.801Z,993.19
2023-04-07T09:44:34.804Z,993.15
2023-04-07T09:45:36.114Z,993.19
2023-04-07T09:46:35.866Z,993.12
2023-04-07T09:47:34.822Z,993.19
2023-04-07T09:48:34.773Z,993.08
2023-04-07T09:49:34.749Z,993.13
2023-04-07T09:50:34.741Z,993.12
2023-04-07T09:51:34.731Z,993.14
2023-04-07T09:52:34.753Z,993.12
2023-04-07T09:53:34.740Z,993.15
2023-04-07T09:54:34.719Z,993.10
2023-04-07T09:55:34.703Z,993.15
2023-04-07T09:56:34.716Z,993.19
2023-04-07T09:57:34.724Z,993.16
2023-04-07T09:58:34.678Z,993.16
2023-04-07T09:59:34.671Z,993.12
2023-04-07T10:00:34.690Z,993.11
2023-04-07T10:01:34.737Z,993.16
2023-04-07T10:02:34.799Z,993.16
2023-04-07T10:03:34.698Z,993.14
2023-04-07T10:04:35.917Z,993.20
2023-04-07T10:05:34.673Z,993.15
2023-04-07T10:06:34.652Z,993.17
2023-04-07T10:07:34.677Z,993.22
2023-04-07T10:08:34.645Z,993.19
2023-04-07T10:09:34.625Z,993.19
2023-04-07T10:10:34.632Z,993.13
2023-04-07T10:11:34.982Z,993.22
2023-04-07T10:12:34.768Z,993.17
2023-04-07T10:13:34.592Z,993.18
2023-04-07T10:14:34.575Z,993.14
2023-04-07T10:15:34.599Z,993.18
2023-04-07T10:16:34.602Z,993.20
2023-04-07T10:17:34.630Z,993.21
2023-04-07T10:18:34.574Z,993.16
2023-04-07T10:19:34.552Z,993.25
2023-04-07T10:20:34.549Z,993.22
2023-04-07T10:21:34.537Z,993.24
2023-04-07T10:22:34.530Z,993.25
2023-04-07T10:23:34.524Z,993.20
2023-04-07T10:24:34.511Z,993.23
2023-04-07T10:25:34.495Z,993.27
2023-04-07T10:26:34.489Z,993.23
2023-04-07T10:27:34.494Z,993.22
2023-04-07T10:28:35.526Z,993.23
2023-04-07T10:29:34.470Z,993.28
2023-04-07T10:30:34.494Z,993.27
2023-04-07T10:31:34.572Z,993.28
2023-04-07T10:32:34.489Z,993.26
2023-04-07T10:33:34.450Z,993.27
2023-04-07T10:34:34.440Z,993.20
2023-04-07T10:35:34.512Z,993.23
2023-04-07T10:36:34.422Z,993.19
2023-04-07T10:37:34.475Z,993.24
2023-04-07T10:38:34.411Z,993.15
2023-04-07T10:39:34.405Z,993.18
2023-04-07T10:40:34.399Z,993.24
2023-04-07T10:41:34.390Z,993.31
2023-04-07T10:42:34.424Z,993.28
2023-04-07T10:43:34.373Z,993.23
2023-04-07T10:44:34.369Z,993.31
2023-04-07T10:45:34.361Z,993.27
2023-04-07T10:46:34.412Z,993.30
2023-04-07T10:47:34.391Z,993.33
2023-04-07T10:48:34.350Z,993.31
2023-04-07T10:49:34.331Z,993.32
2023-04-07T10:50:34.345Z,993.34
2023-04-07T10:51:34.321Z,993.22
2023-04-07T10:52:34.370Z,993.30
2023-04-07T10:53:34.306Z,993.31
2023-04-07T10:54:34.296Z,993.30
2023-04-07T10:55:34.297Z,993.34
2023-04-07T10:56:34.333Z,993.40
2023-04-07T10:57:34.319Z,993.38
2023-04-07T10:58:34.267Z,993.36
2023-04-07T10:59:34.304Z,993.43
2023-04-07T11:00:35.262Z,993.43
2023-04-07T11:01:34.346Z,993.44
2023-04-07T11:02:34.398Z,993.42
2023-04-07T11:03:34.462Z,993.38
2023-04-07T11:04:34.378Z,993.39
2023-04-07T11:05:34.234Z,993.39
2023-04-07T11:06:34.427Z,993.38
2023-04-07T11:07:34.208Z,993.29
2023-04-07T11:08:34.215Z,993.27
2023-04-07T11:09:34.210Z,993.32
2023-04-07T11:10:34.214Z,993.28
2023-04-07T11:11:34.181Z,993.32
2023-04-07T11:12:34.181Z,993.25
2023-04-07T11:13:34.172Z,993.34
2023-04-07T11:14:34.189Z,993.38
2023-04-07T11:15:34.194Z,993.38
2023-04-07T11:16:34.219Z,993.34
2023-04-07T11:17:34.177Z,993.28
2023-04-07T11:18:34.132Z,993.34
2023-04-07T11:19:34.127Z,993.32
2023-04-07T11:20:35.139Z,993.27
2023-04-07T11:21:34.186Z,993.32
2023-04-07T11:22:34.125Z,993.30
2023-04-07T11:23:34.147Z,993.30
2023-04-07T11:24:34.123Z,993.29
2023-04-07T11:25:34.114Z,993.30
2023-04-07T11:26:34.076Z,993.34
2023-04-07T11:27:34.083Z,993.38
2023-04-07T11:28:34.064Z,993.32
2023-04-07T11:29:34.069Z,993.32
2023-04-07T11:30:34.074Z,993.33
2023-04-07T11:31:34.129Z,993.34
2023-04-07T11:32:34.068Z,993.36
2023-04-07T11:33:34.051Z,993.38
2023-04-07T11:34:34.031Z,993.33
2023-04-07T11:35:34.074Z,993.33
2023-04-07T11:36:34.043Z,993.37
2023-04-07T11:37:34.013Z,993.29
2023-04-07T11:38:34.013Z,993.31
2023-04-07T11:39:33.988Z,993.36
2023-04-07T11:40:33.970Z,993.37
2023-04-07T11:41:34.016Z,993.34
2023-04-07T11:42:33.969Z,993.34
2023-04-07T11:43:33.968Z,993.33
2023-04-07T11:44:33.957Z,993.33
2023-04-07T11:45:33.936Z,993.32
2023-04-07T11:46:33.973Z,993.32
2023-04-07T11:47:33.962Z,993.38
2023-04-07T11:48:33.954Z,993.33
2023-04-07T11:49:33.907Z,993.32
2023-04-07T11:50:33.919Z,993.36
2023-04-07T11:51:33.919Z,993.34
2023-04-07T11:52:33.895Z,993.37
2023-04-07T11:53:34.266Z,993.37
2023-04-07T11:54:33.874Z,993.34
2023-04-07T11:55:33.891Z,993.34
2023-04-07T11:56:33.858Z,993.29
2023-04-07T11:57:34.860Z,993.28
2023-04-07T11:58:33.892Z,993.34
2023-04-07T11:59:33.852Z,993.42
2023-04-07T12:00:33.830Z,993.33
2023-04-07T12:01:33.894Z,993.36
2023-04-07T12:02:36.054Z,993.31
2023-04-07T12:03:34.061Z,993.30
2023-04-07T12:04:33.925Z,993.34
2023-04-07T12:05:33.808Z,993.31
2023-04-07T12:06:33.826Z,993.32
2023-04-07T12:07:33.782Z,993.32
2023-04-07T12:08:33.790Z,993.25
2023-04-07T12:09:33.763Z,993.29
2023-04-07T12:10:33.805Z,993.29
2023-04-07T12:11:33.754Z,993.28
2023-04-07T12:12:33.743Z,993.26
2023-04-07T12:13:33.762Z,993.28
2023-04-07T12:14:33.731Z,993.29
2023-04-07T12:15:33.719Z,993.26
2023-04-07T12:16:33.756Z,993.23
2023-04-07T12:17:33.726Z,993.22
2023-04-07T12:18:33.720Z,993.19
2023-04-07T12:19:33.709Z,993.19
2023-04-07T12:20:34.549Z,993.18
2023-04-07T12:21:33.676Z,993.17
2023-04-07T12:22:33.685Z,993.20
2023-04-07T12:23:33.685Z,993.22
2023-04-07T12:24:33.672Z,993.24
2023-04-07T12:25:33.663Z,993.20
2023-04-07T12:26:33.670Z,993.20
2023-04-07T12:27:42.701Z,993.21
2023-04-07T12:28:35.651Z,993.23